AirNav   ATP
 
 1142 users online  

19IN Resler Airport
Churubusco, Indiana, USA


FAA INFORMATION EFFECTIVE 20 JULY 2017

Location

FAA Identifier: 19IN
Lat/Long: 41-17-04.0000N / 085-21-39.0000W
41-17.066667N / 085-21.650000W
41.2844444 / -85.3608333
(estimated)
Elevation: 920 ft. / 280 m (estimated)
From city: 4 miles NNW of CHURUBUSCO, IN
Time zone: UTC -4 (UTC -5 during Standard Time)
Zip code: 46723

Airport Operations

Airport use: Private use. Permission required prior to landing
Activation date: 04/2011
Control tower: no
ARTCC: CHICAGO CENTER
FSS: TERRE HAUTE FLIGHT SERVICE STATION
Attendance: UNATNDD
Wind indicator: yes
Segmented circle: no

Airport Communications

WX AWOS-3P at C62 (12 nm N): 119.925 (260-347-2967)
WX AWOS-3 at SMD (13 nm SE): 124.55 (260-490-4030)
WX AWOS-3 at GWB (13 nm E): 124.15 (260-925-8225)
WX ASOS at FWA (20 nm S): PHONE 260-479-6621

Nearby radio navigation aids

VOR radial/distance  VOR name  Freq  Var
OLKr073/(6.6)WEBSTER LAKE VOR110.4003W
FWAr343/19.9FORT WAYNE VORTAC117.8006W
GSHr116/33.3GOSHEN VORTAC113.7000E

 
NDB name  Hdg/Dist  Freq  Var  ID
ANGOLA215/24.634705WANQ .- -. --.-
HUNTINGTON013/26.241703WHHG .... .... --.
STURGIS178/31.938204WIRS .. .-. ...

Airport Services

Runway Information

Runway 11/29

Dimensions: 1500 x 100 ft. / 457 x 30 m
Surface: turf
RUNWAY 11  RUNWAY 29
Traffic pattern: rightleft

Airport Ownership and Management from official FAA records

Ownership: Privately-owned
Owner: DAVID & LARAMIE RESLER
4719 S 300 E
CHURUBUSCO, IN 46723
Phone 260-693-6191
Manager: DAVID & LARAMIE RESLER
4719 S 300 E
CHURUBUSCO, IN 46723
Phone 260-693-6191

Airport Operational Statistics

Aircraft based on the field: 1
Single engine airplanes: 1
    

Instrument Procedures

There are no published instrument procedures at 19IN.

Some nearby airports with instrument procedures:

C62 - Kendallville Municipal Airport (12 nm N)
KSMD - Smith Field Airport (13 nm SE)
KGWB - De Kalb County Airport (13 nm E)
KFWA - Fort Wayne International Airport (20 nm S)
KASW - Warsaw Municipal Airport (22 nm W)
 
Loc | Ops | Rwys | IFR | FBO | Links
Com | Nav | Svcs | Stats | Notes

City of Findlay
 
Aerial photo
No photo
 
Sectional chart

 
Airport distance calculator
Flying to Resler Airport? Find the distance to fly.

From to 19IN

Sunrise and sunset
Times for 26-Jul-2017
 Local
(UTC-4)
 Zulu
(UTC)
Morning civil twilight06:0010:00
Sunrise06:3210:32
Sunset21:0401:04
Evening civil twilight21:3601:36

Current date and time
Zulu (UTC)  26-Jul-2017 22:45:36
Local (UTC-4)  26-Jul-2017 18:45:36
 
METAR
KGWB 
13nm E 
262235Z AUTO 00000KT 10SM CLR 27/16 A3004 RMK AO2
KFWA 
20nm S 
262154Z 18004KT 10SM SCT140 BKN250 27/18 A3005 RMK AO2 SLP171 T02720178
KASW 
22nm W 
262235Z AUTO 00000KT 10SM CLR 26/19 A3004 RMK AO2
KGSH 
24nm NW 
262153Z AUTO 18004KT 10SM FEW110 28/17 A3003 RMK AO2 SLP165 T02780167 $
KHHG 
26nm S 
262235Z AUTO 19003KT 10SM CLR 27/17 A3003 RMK AO2 T02650170
TAF
KFWA 
20nm S 
261732Z 2618/2718 20006KT P6SM SCT250 FM270600 17005KT P6SM VCTS BKN130CB FM271300 18005KT 6SM SHRA VCTS OVC040CB
NOTAMs
Click for the latest NOTAMs
NOTAMs are issued by the DoD/FAA and will open in a separate window not controlled by AirNav.

 

 
 

Would you like to see your business listed on this page?

 If your business provides an interesting product or service to pilots, flight crews, aircraft, or users of the Resler Airport, you should consider listing it here.  To start the listing process, click on the button below
 
Add a business
 

Other Pages about Resler Airport

Update a link
 
Copyright © AirNav, LLC. All rights reserved. Privacy Policy  Contact